createdAt,value
2023-04-20T00:00:25.473Z,6.80
2023-04-20T00:04:32.175Z,6.90
2023-04-20T00:08:38.835Z,6.80
2023-04-20T00:12:45.636Z,6.90
2023-04-20T00:16:52.326Z,6.80
2023-04-20T00:20:59.085Z,6.60
2023-04-20T00:25:06.349Z,6.50
2023-04-20T00:29:13.073Z,6.50
2023-04-20T00:33:19.721Z,6.50
2023-04-20T00:37:26.523Z,6.50
2023-04-20T00:41:33.244Z,6.50
2023-04-20T00:45:40.032Z,6.50
2023-04-20T00:49:46.947Z,6.50
2023-04-20T00:53:53.725Z,6.50
2023-04-20T00:58:00.907Z,6.50
2023-04-20T01:02:08.156Z,6.70
2023-04-20T01:06:15.200Z,6.70
2023-04-20T01:10:21.893Z,6.70
2023-04-20T01:14:28.768Z,6.70
2023-04-20T01:18:48.948Z,6.80
2023-04-20T01:22:55.671Z,6.80
2023-04-20T01:27:02.479Z,6.90
2023-04-20T01:31:10.580Z,6.80
2023-04-20T01:35:17.367Z,6.80
2023-04-20T01:39:25.121Z,6.70
2023-04-20T01:43:32.966Z,6.60
2023-04-20T01:47:39.633Z,6.60
2023-04-20T01:51:46.348Z,6.60
2023-04-20T01:55:53.120Z,6.60
2023-04-20T01:59:59.782Z,6.60
2023-04-20T02:04:06.616Z,6.50
2023-04-20T02:08:13.331Z,6.60
2023-04-20T02:12:20.121Z,6.70
2023-04-20T02:16:29.328Z,6.70
2023-04-20T02:20:36.068Z,6.70
2023-04-20T02:24:43.783Z,6.80
2023-04-20T02:28:51.614Z,6.90
2023-04-20T02:32:58.778Z,6.90
2023-04-20T02:37:05.557Z,7.00
2023-04-20T02:41:12.267Z,7.00
2023-04-20T02:45:18.984Z,7.00
2023-04-20T02:49:25.755Z,7.10
2023-04-20T02:53:32.477Z,7.20
2023-04-20T02:57:39.157Z,8.70
2023-04-20T03:01:46.218Z,7.30
2023-04-20T03:05:53.050Z,7.20
2023-04-20T03:09:59.783Z,7.20
2023-04-20T03:14:09.489Z,7.40
2023-04-20T03:18:16.173Z,7.40
2023-04-20T03:22:22.868Z,7.30
2023-04-20T03:26:29.557Z,7.30
2023-04-20T03:30:36.258Z,7.40
2023-04-20T03:34:43.001Z,7.40
2023-04-20T03:38:49.678Z,7.40
2023-04-20T03:42:56.333Z,7.50
2023-04-20T03:47:03.028Z,7.40
2023-04-20T03:51:09.812Z,7.40
2023-04-20T03:55:16.598Z,7.50
2023-04-20T03:59:23.388Z,7.40
2023-04-20T04:03:30.851Z,7.50
2023-04-20T04:07:37.680Z,7.50
2023-04-20T04:11:44.360Z,7.50
2023-04-20T04:15:51.055Z,7.50
2023-04-20T04:19:57.862Z,7.50
2023-04-20T04:24:04.804Z,7.50
2023-04-20T04:28:11.942Z,7.50
2023-04-20T04:32:19.070Z,7.50
2023-04-20T04:36:26.907Z,7.50
2023-04-20T04:40:33.651Z,7.50
2023-04-20T04:44:40.342Z,7.60
2023-04-20T04:48:47.080Z,7.60
2023-04-20T04:52:53.729Z,7.50
2023-04-20T04:57:00.473Z,7.50
2023-04-20T05:01:07.176Z,7.50
2023-04-20T05:05:14.588Z,7.50
2023-04-20T05:09:21.397Z,7.50
2023-04-20T05:13:28.058Z,7.60
2023-04-20T05:17:35.048Z,7.60
2023-04-20T05:21:41.814Z,7.70
2023-04-20T05:25:48.564Z,7.80
2023-04-20T05:29:55.294Z,7.80
2023-04-20T05:34:02.852Z,7.90
2023-04-20T05:38:09.535Z,7.90
2023-04-20T05:42:16.570Z,8.00
2023-04-20T05:46:23.784Z,8.20
2023-04-20T05:50:31.159Z,8.40
2023-04-20T05:54:38.012Z,8.50
2023-04-20T05:58:44.793Z,8.80
2023-04-20T06:02:51.802Z,8.80
2023-04-20T06:07:00.045Z,8.80
2023-04-20T06:11:06.833Z,8.90
2023-04-20T06:15:13.861Z,8.80
2023-04-20T06:19:20.652Z,8.80
2023-04-20T06:23:27.563Z,8.70
2023-04-20T06:27:34.236Z,8.60
2023-04-20T06:31:40.905Z,8.50
2023-04-20T06:35:47.780Z,8.60
2023-04-20T06:39:57.787Z,8.60
2023-04-20T06:44:04.858Z,8.70
2023-04-20T06:48:27.620Z,8.70
2023-04-20T06:52:39.082Z,8.90
2023-04-20T06:56:45.815Z,9.00
2023-04-20T07:00:52.660Z,9.10
2023-04-20T07:05:02.593Z,9.00
2023-04-20T07:09:09.382Z,9.00
2023-04-20T07:13:16.414Z,9.10
2023-04-20T07:17:23.095Z,8.90
2023-04-20T07:21:31.514Z,9.00
2023-04-20T07:25:38.166Z,8.90
2023-04-20T07:29:44.871Z,8.70
2023-04-20T07:33:51.557Z,8.60
2023-04-20T07:37:58.286Z,8.50
2023-04-20T07:42:05.066Z,8.70
2023-04-20T07:46:20.394Z,8.60
2023-04-20T07:50:27.347Z,8.90
2023-04-20T07:54:34.162Z,8.20
2023-04-20T07:58:41.056Z,9.20
2023-04-20T08:02:47.847Z,9.10
2023-04-20T08:06:54.661Z,9.00
2023-04-20T08:11:01.559Z,9.00
2023-04-20T08:15:09.250Z,9.10
2023-04-20T08:19:15.992Z,9.20
2023-04-20T08:23:27.715Z,9.40
2023-04-20T08:27:34.644Z,9.20
2023-04-20T08:31:41.384Z,9.00
2023-04-20T08:35:50.089Z,8.90
2023-04-20T08:39:56.723Z,8.90
2023-04-20T08:44:03.806Z,8.90
2023-04-20T08:48:11.180Z,8.90
2023-04-20T08:52:17.889Z,8.90
2023-04-20T08:56:35.046Z,9.20
2023-04-20T09:00:49.372Z,9.40
2023-04-20T09:05:06.603Z,9.70
2023-04-20T09:09:13.523Z,9.70
2023-04-20T09:13:23.827Z,10.00
2023-04-20T09:17:34.229Z,10.70
2023-04-20T09:21:52.297Z,10.70
2023-04-20T09:25:59.008Z,10.30
2023-04-20T09:30:06.932Z,10.00
2023-04-20T09:34:13.944Z,10.00
2023-04-20T09:38:27.278Z,10.20
2023-04-20T09:42:39.325Z,10.50
2023-04-20T09:46:47.014Z,10.60
2023-04-20T09:50:54.437Z,10.40
2023-04-20T09:55:01.197Z,10.20
2023-04-20T09:59:08.574Z,9.90
2023-04-20T10:03:21.947Z,9.80
2023-04-20T10:07:33.154Z,9.90
2023-04-20T10:11:52.253Z,10.00
2023-04-20T10:16:00.658Z,10.00
2023-04-20T10:20:28.186Z,9.90
2023-04-20T10:24:35.816Z,10.30
2023-04-20T10:28:44.837Z,11.10
2023-04-20T10:33:06.308Z,11.80
2023-04-20T10:37:14.191Z,11.80
2023-04-20T10:41:21.136Z,11.50
2023-04-20T10:45:36.427Z,11.20
2023-04-20T10:49:43.128Z,10.90
2023-04-20T10:54:05.207Z,12.10
2023-04-20T10:58:25.037Z,11.00
2023-04-20T11:02:32.039Z,11.60
2023-04-20T11:06:41.096Z,11.70
2023-04-20T11:10:48.438Z,11.20
2023-04-20T11:15:02.898Z,10.90
2023-04-20T11:19:10.118Z,10.90
2023-04-20T11:23:17.297Z,11.00
2023-04-20T11:27:24.758Z,10.60
2023-04-20T11:31:31.664Z,10.50
2023-04-20T11:35:43.107Z,10.60
2023-04-20T11:40:00.428Z,10.70
2023-04-20T11:44:07.106Z,10.90
2023-04-20T11:48:13.791Z,11.10
2023-04-20T11:52:20.511Z,11.10
2023-04-20T11:56:27.300Z,11.20
2023-04-20T12:00:34.586Z,11.30
2023-04-20T12:04:42.670Z,11.40
2023-04-20T12:08:49.529Z,11.30
2023-04-20T12:12:56.861Z,11.10
2023-04-20T12:17:04.855Z,11.00
2023-04-20T12:21:11.558Z,10.80
2023-04-20T12:25:18.317Z,11.00
2023-04-20T12:29:24.966Z,11.40
2023-04-20T12:33:31.610Z,12.10
2023-04-20T12:37:38.308Z,12.30
2023-04-20T12:41:45.128Z,12.90
2023-04-20T12:45:51.810Z,12.60
2023-04-20T12:49:58.453Z,12.20
2023-04-20T12:54:05.257Z,11.80
2023-04-20T12:58:11.991Z,11.60
2023-04-20T13:02:19.061Z,11.50
2023-04-20T13:06:26.545Z,11.40
2023-04-20T13:10:33.284Z,11.40
2023-04-20T13:14:40.130Z,11.40
2023-04-20T13:18:46.817Z,11.50
2023-04-20T13:22:57.531Z,11.70
2023-04-20T13:27:05.163Z,11.80
2023-04-20T13:31:11.937Z,13.10
2023-04-20T13:35:18.915Z,11.60
2023-04-20T13:39:27.751Z,12.30
2023-04-20T13:43:34.421Z,12.80
2023-04-20T13:47:41.462Z,13.10
2023-04-20T13:51:48.350Z,13.10
2023-04-20T13:55:55.016Z,12.70
2023-04-20T14:00:01.692Z,12.40
2023-04-20T14:04:09.793Z,12.50
2023-04-20T14:08:16.641Z,12.40
2023-04-20T14:12:23.382Z,12.20
2023-04-20T14:16:31.029Z,12.50
2023-04-20T14:20:37.844Z,13.00
2023-04-20T14:24:45.459Z,13.30
2023-04-20T14:28:53.157Z,13.50
2023-04-20T14:33:00.888Z,14.00
2023-04-20T14:37:07.840Z,14.30
2023-04-20T14:41:16.214Z,14.30
2023-04-20T14:45:23.020Z,14.30
2023-04-20T14:49:29.686Z,14.00
2023-04-20T14:53:36.396Z,13.60
2023-04-20T14:57:43.095Z,13.70
2023-04-20T15:02:01.719Z,13.50
2023-04-20T15:06:09.452Z,12.90
2023-04-20T15:10:17.180Z,12.60
2023-04-20T15:14:23.900Z,12.90
2023-04-20T15:18:30.573Z,13.10
2023-04-20T15:22:37.378Z,13.20
2023-04-20T15:26:44.037Z,13.30
2023-04-20T15:30:50.849Z,13.60
2023-04-20T15:34:57.487Z,13.50
2023-04-20T15:39:04.304Z,13.10
2023-04-20T15:43:11.242Z,12.80
2023-04-20T15:47:17.893Z,13.00
2023-04-20T15:51:24.834Z,13.20
2023-04-20T15:55:34.518Z,14.40
2023-04-20T15:59:41.263Z,13.40
2023-04-20T16:03:49.799Z,13.20
2023-04-20T16:07:56.784Z,13.00
2023-04-20T16:12:03.948Z,12.90
2023-04-20T16:16:10.683Z,12.60
2023-04-20T16:20:17.409Z,12.70
2023-04-20T16:24:24.107Z,12.70
2023-04-20T16:28:30.853Z,12.90
2023-04-20T16:32:39.632Z,13.00
2023-04-20T16:36:49.895Z,12.80
2023-04-20T16:40:56.583Z,12.50
2023-04-20T16:45:04.434Z,12.30
2023-04-20T16:49:11.105Z,12.00
2023-04-20T16:53:17.781Z,12.00
2023-04-20T16:57:24.565Z,12.20
2023-04-20T17:01:31.989Z,12.20
2023-04-20T17:05:41.638Z,12.10
2023-04-20T17:09:48.854Z,12.10
2023-04-20T17:13:55.535Z,12.30
2023-04-20T17:18:02.258Z,12.50
2023-04-20T17:22:09.235Z,12.60
2023-04-20T17:26:15.993Z,12.50
2023-04-20T17:30:22.753Z,12.50
2023-04-20T17:34:29.424Z,12.40
2023-04-20T17:38:38.282Z,12.30
2023-04-20T17:42:45.374Z,12.30
2023-04-20T17:46:52.052Z,12.30
2023-04-20T17:50:59.070Z,12.30
2023-04-20T17:55:06.594Z,12.20
2023-04-20T17:59:13.464Z,12.10
2023-04-20T18:03:21.179Z,12.00
2023-04-20T18:07:28.213Z,11.90
2023-04-20T18:11:34.868Z,11.80
2023-04-20T18:15:41.615Z,11.70
2023-04-20T18:19:48.363Z,11.50
2023-04-20T18:23:55.464Z,11.10
2023-04-20T18:28:02.140Z,10.60
2023-04-20T18:32:08.801Z,10.50
2023-04-20T18:36:16.295Z,10.50
2023-04-20T18:40:23.034Z,10.50
2023-04-20T18:44:30.245Z,10.50
2023-04-20T18:48:37.144Z,10.30
2023-04-20T18:52:43.950Z,10.40
2023-04-20T18:56:50.887Z,10.30
2023-04-20T19:00:57.888Z,10.20
2023-04-20T19:05:04.888Z,10.00
2023-04-20T19:09:11.750Z,9.70
2023-04-20T19:13:18.430Z,9.50
2023-04-20T19:17:25.223Z,9.30
2023-04-20T19:21:32.664Z,9.10
2023-04-20T19:25:39.451Z,9.20
2023-04-20T19:29:46.234Z,9.10
2023-04-20T19:38:00.180Z,9.10
2023-04-20T19:42:07.777Z,9.10
2023-04-20T19:46:16.832Z,9.10
2023-04-20T19:50:23.790Z,9.20
2023-04-20T19:54:30.480Z,9.20
2023-04-20T19:58:37.322Z,9.20
2023-04-20T20:02:44.184Z,9.10
2023-04-20T20:06:51.325Z,9.10
2023-04-20T20:10:58.017Z,9.10
2023-04-20T20:15:04.894Z,9.30
2023-04-20T20:19:11.587Z,9.30
2023-04-20T20:23:18.223Z,9.20
2023-04-20T20:27:25.817Z,9.30
2023-04-20T20:31:32.539Z,9.30
2023-04-20T20:35:39.897Z,9.20
2023-04-20T20:39:46.716Z,9.10
2023-04-20T20:43:54.857Z,9.00
2023-04-20T20:48:01.717Z,9.10
2023-04-20T20:52:08.511Z,9.00
2023-04-20T20:56:15.230Z,9.00
2023-04-20T21:00:22.102Z,9.00
2023-04-20T21:04:30.073Z,9.00
2023-04-20T21:08:36.802Z,8.90
2023-04-20T21:12:43.496Z,8.70
2023-04-20T21:16:50.490Z,8.70
2023-04-20T21:20:57.314Z,8.60
2023-04-20T21:25:04.364Z,8.40
2023-04-20T21:29:11.053Z,8.40
2023-04-20T21:33:17.774Z,9.40
2023-04-20T21:37:24.512Z,8.40
2023-04-20T21:41:32.206Z,8.60
2023-04-20T21:45:38.924Z,8.60
2023-04-20T21:49:45.719Z,8.60
2023-04-20T21:53:52.374Z,8.60
2023-04-20T21:57:59.037Z,8.70
2023-04-20T22:02:05.927Z,8.70
2023-04-20T22:06:12.717Z,8.90
2023-04-20T22:10:19.422Z,10.40
2023-04-20T22:14:26.238Z,8.90
2023-04-20T22:18:32.905Z,8.90
2023-04-20T22:22:39.952Z,9.00
2023-04-20T22:26:46.640Z,9.00
2023-04-20T22:30:53.956Z,9.00
2023-04-20T22:35:01.179Z,9.00
2023-04-20T22:39:07.923Z,8.90
2023-04-20T22:43:14.628Z,8.90
2023-04-20T22:47:21.373Z,8.80
2023-04-20T22:51:29.045Z,8.80
2023-04-20T22:55:35.815Z,8.80
2023-04-20T22:59:42.485Z,8.70
2023-04-20T23:03:49.221Z,8.70
2023-04-20T23:07:56.279Z,8.80
2023-04-20T23:12:03.553Z,8.80
2023-04-20T23:16:11.259Z,8.80
2023-04-20T23:20:18.028Z,8.80
2023-04-20T23:24:24.686Z,8.80
2023-04-20T23:28:31.573Z,8.60
2023-04-20T23:32:38.286Z,8.60
2023-04-20T23:36:45.033Z,8.50
2023-04-20T23:40:51.832Z,8.30
2023-04-20T23:44:58.762Z,8.20
2023-04-20T23:49:05.482Z,8.10
2023-04-20T23:53:12.272Z,8.10
2023-04-20T23:57:18.944Z,8.10
